Time;durP1;ratioP1;P1;durP2;ratioP2;P2;SDS_P1;SDS_P2;PMS_P1;PMS_P2;Temp;Humidity;BMP_temperature;BMP_pressure;BME280_temperature;BME280_humidity;BME280_pressure;Samples;Min_cycle;Max_cycle;Signal;HPM_P1;HPM_P2
2023/06/19 00:01:41;;;;;;;10.63;7.40;;;;;;;;;;5027472;28;20053;-72
2023/06/19 00:04:07;;;;;;;8.30;5.95;;;;;;;;;;5028022;28;20052;-72
2023/06/19 00:06:32;;;;;;;8.40;5.70;;;;;;;;;;5024836;28;20466;-72
2023/06/19 00:08:58;;;;;;;9.95;5.95;;;;;;;;;;5027635;28;20048;-72
2023/06/19 00:11:24;;;;;;;8.35;5.63;;;;;;;;;;5043691;28;20806;-72
2023/06/19 00:13:50;;;;;;;7.80;6.72;;;;;;;;;;5028241;28;20137;-72
2023/06/19 00:16:15;;;;;;;7.60;5.70;;;;;;;;;;5028431;28;20037;-72
2023/06/19 00:18:41;;;;;;;7.10;6.15;;;;;;;;;;5026233;28;20057;-72
2023/06/19 00:21:08;;;;;;;7.53;6.43;;;;;;;;;;5026496;28;20115;-72
2023/06/19 00:23:34;;;;;;;7.65;6.38;;;;;;;;;;5040106;28;20038;-71
2023/06/19 00:26:01;;;;;;;10.63;6.65;;;;;;;;;;5025119;28;20056;-71
2023/06/19 00:28:30;;;;;;;6.90;5.78;;;;;;;;;;5026489;28;20044;-72
2023/06/19 00:30:55;;;;;;;10.35;6.32;;;;;;;;;;5025541;28;20056;-72
2023/06/19 00:33:21;;;;;;;8.15;6.47;;;;;;;;;;5025135;28;20513;-72
2023/06/19 00:35:48;;;;;;;9.57;6.60;;;;;;;;;;5041639;28;20049;-73
2023/06/19 00:38:13;;;;;;;10.43;6.30;;;;;;;;;;5015380;28;20054;-73
2023/06/19 00:40:39;;;;;;;8.90;5.60;;;;;;;;;;5023874;28;20541;-73
2023/06/19 00:43:05;;;;;;;8.38;5.95;;;;;;;;;;5026044;28;20057;-73
2023/06/19 00:45:31;;;;;;;9.05;6.03;;;;;;;;;;5009289;28;20045;-73
2023/06/19 00:47:58;;;;;;;9.18;6.32;;;;;;;;;;5022804;28;20049;-73
2023/06/19 00:50:24;;;;;;;7.72;6.03;;;;;;;;;;5024245;28;20422;-71
2023/06/19 00:52:50;;;;;;;9.43;5.93;;;;;;;;;;5006526;28;20041;-74
2023/06/19 00:55:16;;;;;;;7.70;6.22;;;;;;;;;;5027098;28;20045;-70
2023/06/19 00:57:43;;;;;;;7.72;6.55;;;;;;;;;;5026440;28;20053;-70
2023/06/19 01:00:12;;;;;;;8.95;6.00;;;;;;;;;;5026813;28;20049;-70
2023/06/19 01:02:39;;;;;;;7.50;5.93;;;;;;;;;;5026186;28;20041;-72
2023/06/19 01:05:05;;;;;;;8.57;5.90;;;;;;;;;;5027957;28;20411;-73
2023/06/19 01:07:42;;;;;;;11.18;6.10;;;;;;;;;;5019062;28;20577;-71
2023/06/19 01:10:13;;;;;;;7.97;6.10;;;;;;;;;;5019456;28;20529;-71
2023/06/19 01:12:50;;;;;;;11.02;6.07;;;;;;;;;;5026885;28;20065;-71
2023/06/19 01:15:16;;;;;;;7.30;5.75;;;;;;;;;;5028622;28;20049;-71
2023/06/19 01:17:43;;;;;;;8.75;6.15;;;;;;;;;;5029177;28;20434;-71
2023/06/19 01:20:11;;;;;;;8.35;6.70;;;;;;;;;;5026837;28;20074;-71
2023/06/19 01:22:37;;;;;;;11.30;7.20;;;;;;;;;;5006239;28;20045;-72
2023/06/19 01:25:05;;;;;;;8.52;7.03;;;;;;;;;;5025898;28;20614;-71
2023/06/19 01:27:31;;;;;;;8.00;6.78;;;;;;;;;;5035380;28;20045;-71
2023/06/19 01:30:00;;;;;;;11.80;6.80;;;;;;;;;;5026963;28;20049;-71
2023/06/19 01:32:35;;;;;;;8.23;6.68;;;;;;;;;;5027574;28;20292;-72
2023/06/19 01:35:02;;;;;;;7.72;6.88;;;;;;;;;;5016558;28;20076;-70
2023/06/19 01:37:28;;;;;;;12.25;7.53;;;;;;;;;;5033651;28;20049;-70
2023/06/19 01:39:59;;;;;;;8.52;6.90;;;;;;;;;;5032351;28;20041;-70
2023/06/19 01:42:26;;;;;;;11.05;6.70;;;;;;;;;;5026216;28;20057;-70
2023/06/19 01:44:52;;;;;;;8.55;6.57;;;;;;;;;;5042302;28;20480;-70
2023/06/19 01:47:19;;;;;;;8.77;6.70;;;;;;;;;;5041117;28;20083;-70
2023/06/19 01:49:48;;;;;;;10.85;6.57;;;;;;;;;;5026857;28;20115;-71
2023/06/19 01:52:14;;;;;;;7.93;5.90;;;;;;;;;;5026866;28;20045;-71
2023/06/19 01:54:40;;;;;;;9.68;6.82;;;;;;;;;;5026631;28;20441;-71
2023/06/19 01:57:06;;;;;;;9.50;7.30;;;;;;;;;;5042703;28;20053;-71
2023/06/19 01:59:31;;;;;;;8.20;6.88;;;;;;;;;;5019745;28;20056;-71
2023/06/19 02:01:57;;;;;;;7.22;6.50;;;;;;;;;;5042110;28;20107;-71
2023/06/19 02:04:22;;;;;;;7.88;6.70;;;;;;;;;;5025540;28;20049;-71
2023/06/19 02:06:48;;;;;;;9.05;6.40;;;;;;;;;;5042343;28;20053;-72
2023/06/19 02:09:14;;;;;;;10.55;7.18;;;;;;;;;;5032182;28;20384;-70
2023/06/19 02:11:39;;;;;;;7.53;6.65;;;;;;;;;;5019667;28;20052;-70
2023/06/19 02:14:05;;;;;;;11.50;7.03;;;;;;;;;;5026744;28;20132;-70
2023/06/19 02:16:30;;;;;;;8.52;6.15;;;;;;;;;;5009138;28;20042;-70
2023/06/19 02:18:56;;;;;;;7.70;6.13;;;;;;;;;;5042580;28;20053;-70
2023/06/19 02:21:22;;;;;;;7.95;6.28;;;;;;;;;;5023597;28;20033;-70
2023/06/19 02:23:47;;;;;;;11.43;7.10;;;;;;;;;;5027018;28;20465;-70
2023/06/19 02:26:13;;;;;;;9.23;6.82;;;;;;;;;;5041524;28;20049;-70
2023/06/19 02:28:38;;;;;;;11.55;7.38;;;;;;;;;;5023985;28;20068;-70
2023/06/19 02:31:04;;;;;;;9.93;7.25;;;;;;;;;;5012673;28;20461;-70
2023/06/19 02:33:32;;;;;;;9.60;7.40;;;;;;;;;;5022949;28;20076;-70
2023/06/19 02:35:58;;;;;;;12.20;7.00;;;;;;;;;;5029213;28;20071;-70
2023/06/19 02:38:29;;;;;;;12.80;7.22;;;;;;;;;;5022736;28;20499;-71
2023/06/19 02:40:57;;;;;;;7.70;6.45;;;;;;;;;;5020633;28;20056;-71
2023/06/19 02:43:22;;;;;;;10.77;7.43;;;;;;;;;;5021038;28;20334;-71
2023/06/19 02:45:48;;;;;;;8.93;7.15;;;;;;;;;;5036912;28;20045;-70
2023/06/19 02:48:13;;;;;;;9.30;6.90;;;;;;;;;;5021941;28;20053;-70
2023/06/19 02:50:39;;;;;;;7.88;6.75;;;;;;;;;;5037059;28;20064;-70
2023/06/19 02:53:04;;;;;;;10.13;7.13;;;;;;;;;;5021361;28;20046;-71
2023/06/19 02:55:30;;;;;;;9.80;7.95;;;;;;;;;;5022335;28;20656;-70
2023/06/19 02:57:56;;;;;;;13.02;7.47;;;;;;;;;;5021868;28;20045;-70
2023/06/19 03:00:22;;;;;;;13.40;7.90;;;;;;;;;;5021344;28;20468;-71
2023/06/19 03:02:48;;;;;;;11.98;7.65;;;;;;;;;;5020326;28;20045;-70
2023/06/19 03:05:17;;;;;;;9.65;7.13;;;;;;;;;;5020328;28;20527;-73
2023/06/19 03:07:43;;;;;;;8.80;6.45;;;;;;;;;;5023636;28;20045;-74
2023/06/19 03:10:09;;;;;;;8.07;7.28;;;;;;;;;;5017253;28;20402;-73
2023/06/19 03:12:34;;;;;;;9.07;7.53;;;;;;;;;;5021936;28;20037;-73
2023/06/19 03:15:00;;;;;;;9.82;7.57;;;;;;;;;;5023867;28;20057;-73
2023/06/19 03:17:28;;;;;;;10.05;7.05;;;;;;;;;;5029690;28;20045;-73
2023/06/19 03:19:53;;;;;;;9.52;7.30;;;;;;;;;;5039226;28;20055;-73
2023/06/19 03:22:21;;;;;;;8.18;7.10;;;;;;;;;;5031052;28;20132;-73
2023/06/19 03:24:46;;;;;;;11.32;7.28;;;;;;;;;;5020504;28;20053;-73
2023/06/19 03:27:17;;;;;;;8.63;7.45;;;;;;;;;;5020157;28;20053;-74
2023/06/19 03:29:43;;;;;;;12.15;7.65;;;;;;;;;;5025660;28;20045;-74
2023/06/19 03:32:11;;;;;;;10.18;7.32;;;;;;;;;;5019950;28;20445;-72
2023/06/19 03:34:36;;;;;;;11.55;7.68;;;;;;;;;;5034584;28;20508;-73
2023/06/19 03:37:06;;;;;;;11.55;8.00;;;;;;;;;;5027309;28;20076;-72
2023/06/19 03:39:32;;;;;;;8.27;6.88;;;;;;;;;;5000661;28;20057;-72
2023/06/19 03:42:05;;;;;;;10.98;7.63;;;;;;;;;;5026997;28;20850;-72
2023/06/19 03:44:30;;;;;;;9.30;7.40;;;;;;;;;;5020126;28;20049;-72
2023/06/19 03:46:57;;;;;;;10.45;7.15;;;;;;;;;;5028208;28;20088;-73
2023/06/19 03:49:23;;;;;;;9.05;6.72;;;;;;;;;;5038432;28;20116;-71
2023/06/19 03:51:49;;;;;;;11.27;7.20;;;;;;;;;;5020643;28;20041;-73
2023/06/19 03:54:15;;;;;;;9.10;7.38;;;;;;;;;;5011520;28;20038;-73
2023/06/19 03:56:41;;;;;;;9.40;6.97;;;;;;;;;;5015132;28;20045;-73
2023/06/19 03:59:06;;;;;;;11.18;7.20;;;;;;;;;;5028958;28;20068;-73
2023/06/19 04:01:31;;;;;;;9.68;7.65;;;;;;;;;;5037998;28;20053;-74
2023/06/19 04:03:57;;;;;;;15.30;8.30;;;;;;;;;;5000947;28;20498;-74
2023/06/19 04:06:23;;;;;;;12.68;8.10;;;;;;;;;;4990136;28;20041;-75
2023/06/19 04:08:48;;;;;;;18.13;8.43;;;;;;;;;;5020103;28;20459;-75
2023/06/19 04:11:14;;;;;;;15.25;9.00;;;;;;;;;;5033541;28;20487;-75
2023/06/19 04:13:39;;;;;;;13.57;7.72;;;;;;;;;;5019070;28;20517;-74
2023/06/19 04:16:05;;;;;;;10.07;8.13;;;;;;;;;;5024938;28;20061;-75
2023/06/19 04:18:30;;;;;;;10.05;8.80;;;;;;;;;;5019104;28;20049;-75
2023/06/19 04:20:56;;;;;;;12.52;7.95;;;;;;;;;;5018496;28;20041;-75
2023/06/19 04:23:21;;;;;;;10.20;7.50;;;;;;;;;;5018804;28;20060;-75
2023/06/19 04:25:47;;;;;;;10.80;7.93;;;;;;;;;;5000143;28;20054;-75
2023/06/19 04:28:12;;;;;;;9.88;7.45;;;;;;;;;;5020253;28;20045;-75
2023/06/19 04:30:40;;;;;;;15.60;8.75;;;;;;;;;;5018347;28;20041;-75
2023/06/19 04:33:07;;;;;;;13.65;7.90;;;;;;;;;;5019033;28;20100;-75
2023/06/19 04:35:39;;;;;;;9.88;7.97;;;;;;;;;;5003922;28;20046;-75
2023/06/19 04:38:08;;;;;;;14.80;8.30;;;;;;;;;;5023462;28;20661;-75
2023/06/19 04:40:33;;;;;;;10.18;8.07;;;;;;;;;;5014981;28;20042;-75
2023/06/19 04:43:00;;;;;;;14.35;7.55;;;;;;;;;;5022562;28;21189;-75
2023/06/19 04:45:25;;;;;;;11.77;7.53;;;;;;;;;;5021732;28;20410;-75
2023/06/19 04:47:51;;;;;;;8.95;7.32;;;;;;;;;;5020473;28;20050;-75
2023/06/19 04:50:16;;;;;;;11.50;7.75;;;;;;;;;;5023430;28;20103;-75
2023/06/19 04:52:42;;;;;;;10.60;7.55;;;;;;;;;;5021050;28;20057;-75
2023/06/19 04:55:11;;;;;;;9.45;7.97;;;;;;;;;;5021861;28;20054;-75
2023/06/19 04:57:39;;;;;;;11.65;8.13;;;;;;;;;;5021307;28;20041;-75
2023/06/19 05:00:06;;;;;;;10.95;8.38;;;;;;;;;;5022535;28;20632;-74
2023/06/19 05:02:33;;;;;;;12.30;8.57;;;;;;;;;;5021618;28;20130;-74
2023/06/19 05:05:02;;;;;;;9.90;8.27;;;;;;;;;;5019557;28;20052;-74
2023/06/19 05:07:30;;;;;;;10.35;7.68;;;;;;;;;;5022637;28;20502;-75
2023/06/19 05:09:56;;;;;;;11.75;7.85;;;;;;;;;;5020398;28;20041;-75
2023/06/19 05:12:21;;;;;;;11.55;8.70;;;;;;;;;;5024162;28;20037;-71
2023/06/19 05:14:46;;;;;;;10.13;8.07;;;;;;;;;;5037920;28;20049;-71
2023/06/19 05:17:12;;;;;;;10.68;7.40;;;;;;;;;;5022106;28;20049;-72
2023/06/19 05:19:37;;;;;;;12.70;8.40;;;;;;;;;;5021794;28;20057;-71
2023/06/19 05:22:03;;;;;;;9.70;7.85;;;;;;;;;;5022403;28;20041;-72
2023/06/19 05:24:28;;;;;;;8.73;7.75;;;;;;;;;;5019853;28;20502;-72
2023/06/19 05:26:54;;;;;;;10.98;8.20;;;;;;;;;;5020414;28;20052;-72
2023/06/19 05:29:19;;;;;;;12.98;8.13;;;;;;;;;;5020927;28;20458;-72
2023/06/19 05:31:45;;;;;;;13.02;8.52;;;;;;;;;;5021999;28;20037;-71
2023/06/19 05:34:10;;;;;;;14.07;7.90;;;;;;;;;;5021173;28;20045;-72
2023/06/19 05:36:35;;;;;;;12.38;8.15;;;;;;;;;;5019639;28;20045;-72
2023/06/19 05:39:01;;;;;;;10.68;8.43;;;;;;;;;;5020398;28;20041;-72
2023/06/19 05:41:26;;;;;;;12.85;8.05;;;;;;;;;;5026507;28;20076;-72
2023/06/19 05:43:51;;;;;;;17.67;8.68;;;;;;;;;;5022170;28;20049;-72
2023/06/19 05:46:17;;;;;;;17.60;8.45;;;;;;;;;;5022954;28;20049;-72
2023/06/19 05:48:42;;;;;;;12.88;7.80;;;;;;;;;;5020118;28;20653;-71
2023/06/19 05:51:08;;;;;;;11.95;7.97;;;;;;;;;;5022468;28;20592;-72
2023/06/19 05:53:33;;;;;;;21.48;8.23;;;;;;;;;;5022580;28;20052;-72
2023/06/19 05:55:59;;;;;;;10.95;8.32;;;;;;;;;;5022174;28;20056;-71
2023/06/19 05:58:25;;;;;;;10.85;8.85;;;;;;;;;;5021527;28;20876;-71
2023/06/19 06:00:57;;;;;;;10.50;9.40;;;;;;;;;;5026396;28;20136;-72
2023/06/19 06:03:22;;;;;;;;;;;;;;;;;;5023051;28;20050;-72
2023/06/19 06:05:49;;;;;;;11.48;8.13;;;;;;;;;;5025129;28;19932;-72
2023/06/19 06:08:15;;;;;;;16.35;9.70;;;;;;;;;;5025458;28;20049;-71
2023/06/19 06:10:40;;;;;;;15.10;8.68;;;;;;;;;;5021799;28;20046;-71
2023/06/19 06:13:05;;;;;;;16.20;9.07;;;;;;;;;;5023032;28;20450;-71
2023/06/19 06:15:31;;;;;;;18.88;9.70;;;;;;;;;;5021263;28;20656;-71
2023/06/19 06:17:56;;;;;;;15.82;9.30;;;;;;;;;;5020918;28;20053;-71
2023/06/19 06:20:22;;;;;;;11.00;9.27;;;;;;;;;;5022564;28;20099;-72
2023/06/19 06:22:47;;;;;;;18.55;9.05;;;;;;;;;;5021032;28;20395;-71
2023/06/19 06:25:12;;;;;;;14.18;8.75;;;;;;;;;;5022768;28;20530;-71
2023/06/19 06:27:38;;;;;;;11.82;8.75;;;;;;;;;;5016614;28;20140;-72
2023/06/19 06:30:04;;;;;;;13.35;8.50;;;;;;;;;;5022117;28;20041;-72
2023/06/19 06:32:30;;;;;;;13.98;8.95;;;;;;;;;;5033497;28;20041;-72
2023/06/19 06:34:57;;;;;;;13.23;9.20;;;;;;;;;;5022939;28;20041;-74
2023/06/19 06:37:22;;;;;;;13.45;8.48;;;;;;;;;;5023454;28;20635;-73
2023/06/19 06:39:49;;;;;;;16.05;9.45;;;;;;;;;;5025510;28;20038;-73
2023/06/19 06:42:15;;;;;;;14.68;8.95;;;;;;;;;;5031108;28;20080;-72
2023/06/19 06:44:40;;;;;;;13.27;8.75;;;;;;;;;;5025976;28;20518;-72
2023/06/19 06:47:06;;;;;;;19.38;9.10;;;;;;;;;;5026163;28;20040;-72
2023/06/19 06:49:31;;;;;;;16.52;8.50;;;;;;;;;;5026092;28;20045;-71
2023/06/19 06:51:57;;;;;;;15.10;8.57;;;;;;;;;;5024042;28;20037;-73
2023/06/19 06:54:22;;;;;;;17.65;8.55;;;;;;;;;;5024874;28;20049;-73
2023/06/19 06:56:48;;;;;;;12.07;8.38;;;;;;;;;;5024560;28;20457;-73
2023/06/19 06:59:15;;;;;;;19.73;8.23;;;;;;;;;;5025506;28;20132;-74
2023/06/19 07:01:41;;;;;;;9.88;7.88;;;;;;;;;;5020802;28;20111;-73
2023/06/19 07:04:07;;;;;;;10.68;7.32;;;;;;;;;;5036951;28;20052;-74
2023/06/19 07:06:32;;;;;;;12.50;7.45;;;;;;;;;;5021047;28;20042;-72
2023/06/19 07:08:58;;;;;;;10.88;7.35;;;;;;;;;;5021268;28;20045;-73
2023/06/19 07:11:23;;;;;;;12.13;7.05;;;;;;;;;;5028015;28;20045;-73
2023/06/19 07:13:49;;;;;;;12.75;6.82;;;;;;;;;;5040448;28;20045;-72
2023/06/19 07:16:14;;;;;;;11.63;6.55;;;;;;;;;;5022930;28;20060;-72
2023/06/19 07:18:41;;;;;;;9.18;6.25;;;;;;;;;;5021134;28;20056;-72
2023/06/19 07:21:12;;;;;;;11.25;5.80;;;;;;;;;;5019412;28;21115;-72
2023/06/19 07:23:39;;;;;;;14.07;6.13;;;;;;;;;;5020837;28;20056;-73
2023/06/19 07:26:05;;;;;;;12.57;6.05;;;;;;;;;;5020262;28;20049;-71
2023/06/19 07:28:30;;;;;;;9.85;6.03;;;;;;;;;;5019307;28;20045;-72
2023/06/19 07:30:55;;;;;;;9.43;5.50;;;;;;;;;;5020132;28;20267;-72
2023/06/19 07:33:21;;;;;;;9.00;5.95;;;;;;;;;;5020735;28;20118;-72
2023/06/19 07:35:47;;;;;;;8.98;5.78;;;;;;;;;;5019029;28;20053;-71
2023/06/19 07:38:12;;;;;;;8.70;6.22;;;;;;;;;;5019587;28;20049;-72
2023/06/19 07:40:38;;;;;;;7.22;5.75;;;;;;;;;;5020112;28;20458;-73
2023/06/19 07:43:04;;;;;;;12.40;6.07;;;;;;;;;;5022788;28;20053;-72
2023/06/19 07:45:29;;;;;;;9.35;6.22;;;;;;;;;;5025708;28;20124;-71
2023/06/19 07:47:56;;;;;;;9.35;5.63;;;;;;;;;;5024235;28;20133;-71
2023/06/19 07:50:22;;;;;;;7.15;5.68;;;;;;;;;;5024511;28;20049;-73
2023/06/19 07:52:47;;;;;;;9.82;5.70;;;;;;;;;;5022459;28;20056;-72
2023/06/19 07:55:12;;;;;;;7.00;5.47;;;;;;;;;;5021183;28;20046;-72
2023/06/19 07:57:38;;;;;;;15.98;5.63;;;;;;;;;;5025954;28;20518;-72
2023/06/19 08:00:10;;;;;;;5.60;5.10;;;;;;;;;;5024114;28;20128;-73
2023/06/19 08:02:37;;;;;;;6.70;4.95;;;;;;;;;;5020082;28;20050;-73
2023/06/19 08:05:03;;;;;;;7.57;5.30;;;;;;;;;;5022217;28;20606;-72
2023/06/19 08:07:28;;;;;;;7.57;5.30;;;;;;;;;;5023037;28;20053;-71
2023/06/19 08:09:54;;;;;;;8.95;5.30;;;;;;;;;;5019716;28;20041;-71
2023/06/19 08:12:19;;;;;;;6.72;5.53;;;;;;;;;;5018474;28;20049;-72
2023/06/19 08:14:44;;;;;;;12.52;5.43;;;;;;;;;;5020307;28;20053;-71
2023/06/19 08:17:10;;;;;;;8.52;5.68;;;;;;;;;;5023208;28;20045;-73
2023/06/19 08:19:35;;;;;;;12.63;5.68;;;;;;;;;;5008243;28;20084;-71
2023/06/19 08:22:01;;;;;;;8.82;5.60;;;;;;;;;;5023553;28;20100;-71
2023/06/19 08:24:26;;;;;;;8.30;5.00;;;;;;;;;;5022567;28;20041;-73
2023/06/19 08:26:52;;;;;;;6.43;5.22;;;;;;;;;;5025151;28;20053;-73
2023/06/19 08:29:18;;;;;;;6.85;5.07;;;;;;;;;;5023433;28;20045;-73
2023/06/19 08:31:44;;;;;;;6.82;5.32;;;;;;;;;;5020476;28;20044;-75
2023/06/19 08:34:10;;;;;;;5.53;5.00;;;;;;;;;;5035203;28;20045;-73
2023/06/19 08:36:35;;;;;;;9.10;5.32;;;;;;;;;;5001737;28;20056;-74
2023/06/19 08:39:01;;;;;;;7.38;4.95;;;;;;;;;;5017907;28;20049;-74
2023/06/19 08:41:26;;;;;;;6.55;5.18;;;;;;;;;;5020025;28;20103;-74
2023/06/19 08:43:52;;;;;;;5.30;4.80;;;;;;;;;;5021204;28;20136;-72
2023/06/19 08:46:18;;;;;;;9.00;4.60;;;;;;;;;;5020215;28;20045;-73
2023/06/19 08:48:45;;;;;;;6.68;4.90;;;;;;;;;;5021308;28;20138;-73
2023/06/19 08:51:11;;;;;;;5.55;4.85;;;;;;;;;;5022920;28;20046;-73
2023/06/19 08:53:45;;;;;;;5.57;4.93;;;;;;;;;;5024204;28;20061;-73
2023/06/19 08:56:11;;;;;;;5.45;4.60;;;;;;;;;;5022421;28;20045;-72
2023/06/19 08:58:37;;;;;;;13.93;4.80;;;;;;;;;;5021667;28;20042;-73
2023/06/19 09:01:03;;;;;;;6.82;3.60;;;;;;;;;;5023514;28;20632;-74
2023/06/19 09:03:28;;;;;;;3.92;3.13;;;;;;;;;;5020715;28;20042;-74
2023/06/19 09:05:53;;;;;;;4.15;3.13;;;;;;;;;;5034304;28;20048;-74
2023/06/19 09:08:21;;;;;;;3.33;3.03;;;;;;;;;;5034414;28;20183;-73
2023/06/19 09:11:03;;;;;;;8.55;3.08;;;;;;;;;;5017666;28;20049;-72
2023/06/19 09:13:29;;;;;;;3.35;3.05;;;;;;;;;;5024739;28;20050;-73
2023/06/19 09:16:02;;;;;;;3.58;3.28;;;;;;;;;;5022803;28;20052;-71
2023/06/19 09:18:42;;;;;;;6.00;3.30;;;;;;;;;;5018291;28;20041;-72
2023/06/19 09:21:14;;;;;;;7.97;3.92;;;;;;;;;;5022533;28;20103;-73
2023/06/19 09:23:40;;;;;;;7.32;3.30;;;;;;;;;;5022803;28;20042;-72
2023/06/19 09:26:06;;;;;;;4.32;2.67;;;;;;;;;;5032983;28;20049;-73
2023/06/19 09:28:33;;;;;;;9.57;3.20;;;;;;;;;;5027820;28;20896;-72
2023/06/19 09:31:04;;;;;;;5.22;2.42;;;;;;;;;;5022407;28;20056;-73
2023/06/19 09:33:32;;;;;;;3.25;2.95;;;;;;;;;;5027348;28;20040;-72
2023/06/19 09:35:59;;;;;;;12.70;3.50;;;;;;;;;;5026521;28;20046;-72
2023/06/19 09:38:27;;;;;;;8.65;3.30;;;;;;;;;;5025690;28;20103;-72
2023/06/19 09:40:53;;;;;;;4.43;3.75;;;;;;;;;;5022338;28;20053;-71
2023/06/19 09:43:36;;;;;;;6.00;3.10;;;;;;;;;;5025214;28;20045;-72
2023/06/19 09:46:03;;;;;;;4.60;3.08;;;;;;;;;;5022916;28;20045;-73
2023/06/19 09:48:30;;;;;;;5.07;3.70;;;;;;;;;;5021770;28;20049;-73
2023/06/19 09:51:20;;;;;;;4.20;2.90;;;;;;;;;;5024066;28;20044;-72
2023/06/19 09:53:49;;;;;;;3.38;2.97;;;;;;;;;;5019641;28;20045;-72
2023/06/19 09:56:16;;;;;;;4.13;3.35;;;;;;;;;;5009287;28;20041;-72
2023/06/19 09:58:45;;;;;;;4.63;2.72;;;;;;;;;;5025219;28;20151;-71
2023/06/19 10:01:12;;;;;;;4.68;3.05;;;;;;;;;;5027307;28;20126;-72
2023/06/19 10:03:40;;;;;;;3.60;3.30;;;;;;;;;;5024644;28;20049;-72
2023/06/19 10:06:06;;;;;;;4.45;3.28;;;;;;;;;;5023538;28;20049;-71
2023/06/19 10:08:40;;;;;;;3.45;3.22;;;;;;;;;;5024294;28;20056;-72
2023/06/19 10:11:05;;;;;;;5.28;3.70;;;;;;;;;;5024181;28;20056;-71
2023/06/19 10:13:36;;;;;;;5.85;4.03;;;;;;;;;;5022845;28;20038;-71
2023/06/19 10:16:01;;;;;;;;;;;;;;;;;;5024195;28;20045;-70
2023/06/19 10:18:27;;;;;;;6.32;3.33;;;;;;;;;;5026280;28;19921;-71
2023/06/19 10:20:56;;;;;;;4.72;3.60;;;;;;;;;;5025354;28;20056;-70
2023/06/19 10:23:24;;;;;;;7.50;3.55;;;;;;;;;;5024586;28;20049;-71
2023/06/19 10:25:59;;;;;;;5.55;3.63;;;;;;;;;;5022144;28;20077;-72
2023/06/19 10:28:28;;;;;;;7.45;3.55;;;;;;;;;;5024647;28;20105;-71
2023/06/19 10:31:04;;;;;;;12.20;3.78;;;;;;;;;;5010197;28;20578;-70
2023/06/19 10:33:32;;;;;;;4.38;3.55;;;;;;;;;;5024984;28;20065;-70
2023/06/19 10:36:02;;;;;;;6.47;3.53;;;;;;;;;;5025087;28;20045;-70
2023/06/19 10:38:28;;;;;;;5.55;3.65;;;;;;;;;;5026319;28;20048;-72
2023/06/19 10:40:54;;;;;;;8.02;3.50;;;;;;;;;;5024162;28;20140;-71
2023/06/19 10:43:31;;;;;;;7.45;3.55;;;;;;;;;;5023983;28;20129;-72
2023/06/19 10:45:57;;;;;;;3.65;3.30;;;;;;;;;;5020791;28;20046;-71
2023/06/19 10:48:24;;;;;;;4.50;4.10;;;;;;;;;;5022523;28;20037;-72
2023/06/19 10:50:50;;;;;;;4.00;3.70;;;;;;;;;;5025330;28;20045;-71
2023/06/19 10:53:25;;;;;;;6.13;3.25;;;;;;;;;;5021796;28;20046;-72
2023/06/19 10:55:55;;;;;;;7.13;3.53;;;;;;;;;;5025280;28;20046;-71
2023/06/19 10:58:21;;;;;;;14.60;3.50;;;;;;;;;;5026220;28;20041;-71
2023/06/19 11:00:46;;;;;;;7.97;3.85;;;;;;;;;;5020365;28;20045;-71
2023/06/19 11:03:12;;;;;;;6.38;3.40;;;;;;;;;;5021066;28;20383;-70
2023/06/19 11:05:43;;;;;;;4.13;2.88;;;;;;;;;;5021340;28;20038;-71
2023/06/19 11:08:08;;;;;;;5.20;3.10;;;;;;;;;;5020112;28;20049;-71
2023/06/19 11:10:34;;;;;;;5.13;3.20;;;;;;;;;;5024546;28;20120;-71
2023/06/19 11:13:00;;;;;;;3.25;2.83;;;;;;;;;;5026424;28;20133;-73
2023/06/19 11:15:34;;;;;;;4.93;3.20;;;;;;;;;;5023081;28;20102;-73
2023/06/19 11:18:01;;;;;;;7.75;3.30;;;;;;;;;;5021522;28;20056;-73
2023/06/19 11:20:27;;;;;;;5.35;2.75;;;;;;;;;;5020366;28;20041;-74
2023/06/19 11:22:58;;;;;;;4.20;2.92;;;;;;;;;;5021677;28;20116;-73
2023/06/19 11:25:34;;;;;;;3.40;2.97;;;;;;;;;;5024841;28;20045;-71
2023/06/19 11:28:00;;;;;;;3.78;2.80;;;;;;;;;;5034293;28;20147;-71
2023/06/19 11:30:33;;;;;;;5.97;2.78;;;;;;;;;;5024502;28;20042;-72
2023/06/19 11:32:59;;;;;;;6.03;2.90;;;;;;;;;;5015137;28;20049;-73
2023/06/19 11:35:25;;;;;;;3.50;2.63;;;;;;;;;;5020197;28;20048;-73
2023/06/19 11:37:51;;;;;;;2.63;2.42;;;;;;;;;;5018863;28;20076;-74
2023/06/19 11:40:19;;;;;;;3.78;2.97;;;;;;;;;;5018073;28;20077;-73
2023/06/19 11:42:49;;;;;;;5.32;2.65;;;;;;;;;;5017433;28;21391;-74
2023/06/19 11:45:15;;;;;;;3.63;3.33;;;;;;;;;;5017765;28;20049;-73
2023/06/19 11:47:40;;;;;;;3.75;3.10;;;;;;;;;;5019989;28;20124;-73
2023/06/19 11:50:07;;;;;;;2.92;2.65;;;;;;;;;;5035066;28;20055;-74
2023/06/19 11:52:33;;;;;;;3.75;3.00;;;;;;;;;;5016501;28;20047;-74
2023/06/19 11:54:58;;;;;;;8.27;3.20;;;;;;;;;;5019629;28;20037;-74
2023/06/19 11:57:24;;;;;;;4.97;2.80;;;;;;;;;;5019793;28;20085;-74
2023/06/19 11:59:49;;;;;;;3.80;2.58;;;;;;;;;;5017572;28;20053;-73
2023/06/19 12:02:15;;;;;;;2.92;2.72;;;;;;;;;;5018742;28;20037;-73
2023/06/19 12:04:40;;;;;;;3.63;2.63;;;;;;;;;;5006960;28;20160;-73
2023/06/19 12:07:06;;;;;;;2.78;2.58;;;;;;;;;;5019943;28;20080;-74
2023/06/19 12:09:34;;;;;;;9.10;3.15;;;;;;;;;;5017575;28;20588;-73
2023/06/19 12:12:00;;;;;;;3.63;2.80;;;;;;;;;;5019292;28;20087;-73
2023/06/19 12:14:26;;;;;;;2.83;2.63;;;;;;;;;;5016783;28;20063;-72
2023/06/19 12:16:51;;;;;;;3.75;2.80;;;;;;;;;;5034531;28;20402;-72
2023/06/19 12:19:17;;;;;;;3.03;2.70;;;;;;;;;;5017729;28;20087;-73
2023/06/19 12:21:43;;;;;;;2.92;2.72;;;;;;;;;;5017965;28;20104;-72
2023/06/19 12:24:09;;;;;;;4.30;2.75;;;;;;;;;;5017740;28;20136;-73
2023/06/19 12:26:39;;;;;;;3.90;3.10;;;;;;;;;;5019558;28;20052;-73
2023/06/19 12:29:05;;;;;;;3.10;2.80;;;;;;;;;;5023317;28;20140;-72
2023/06/19 12:31:31;;;;;;;4.53;2.88;;;;;;;;;;5023273;28;20612;-73
2023/06/19 12:33:57;;;;;;;4.30;3.05;;;;;;;;;;5020385;28;20176;-73
2023/06/19 12:36:22;;;;;;;3.03;2.75;;;;;;;;;;5020021;28;20129;-72
2023/06/19 12:38:48;;;;;;;3.80;3.35;;;;;;;;;;5019587;28;20045;-72
2023/06/19 12:41:15;;;;;;;5.55;3.00;;;;;;;;;;5019409;28;20053;-72
2023/06/19 12:43:40;;;;;;;3.03;2.83;;;;;;;;;;5019703;28;20045;-72
2023/06/19 12:46:06;;;;;;;7.35;3.00;;;;;;;;;;5018910;28;20076;-73
2023/06/19 12:48:32;;;;;;;3.28;2.95;;;;;;;;;;5019611;28;20044;-73
2023/06/19 12:50:58;;;;;;;7.63;3.38;;;;;;;;;;5020114;28;20053;-73
2023/06/19 12:53:26;;;;;;;7.55;3.38;;;;;;;;;;5019092;28;20076;-73
2023/06/19 12:55:53;;;;;;;3.63;3.28;;;;;;;;;;5022369;28;20052;-73
2023/06/19 12:58:19;;;;;;;7.22;3.00;;;;;;;;;;5020854;28;20045;-73
2023/06/19 13:00:44;;;;;;;6.22;3.33;;;;;;;;;;5024541;28;20072;-73
2023/06/19 13:03:09;;;;;;;5.85;3.58;;;;;;;;;;5027684;28;20077;-73
2023/06/19 13:05:35;;;;;;;4.22;3.38;;;;;;;;;;5026317;28;20390;-74
2023/06/19 13:08:00;;;;;;;4.93;3.30;;;;;;;;;;5030390;28;20124;-74
2023/06/19 13:10:25;;;;;;;4.10;3.13;;;;;;;;;;5024311;28;20138;-74
2023/06/19 13:12:51;;;;;;;3.60;3.30;;;;;;;;;;5025717;28;20132;-73
2023/06/19 13:15:17;;;;;;;4.28;3.45;;;;;;;;;;5028226;28;20746;-73
2023/06/19 13:17:42;;;;;;;4.00;3.33;;;;;;;;;;5026373;28;20121;-74
2023/06/19 13:20:08;;;;;;;6.47;3.17;;;;;;;;;;5023370;28;20041;-73
2023/06/19 13:22:33;;;;;;;6.70;3.60;;;;;;;;;;5022507;28;20543;-72
2023/06/19 13:24:59;;;;;;;3.50;3.20;;;;;;;;;;5019882;28;20941;-73
2023/06/19 13:27:24;;;;;;;3.42;3.13;;;;;;;;;;5023147;28;20076;-73
2023/06/19 13:29:50;;;;;;;5.32;3.47;;;;;;;;;;5022510;28;20067;-74
2023/06/19 13:32:15;;;;;;;5.65;3.50;;;;;;;;;;5026354;28;20053;-74
2023/06/19 13:34:41;;;;;;;8.90;3.75;;;;;;;;;;5022915;28;20123;-74
2023/06/19 13:37:06;;;;;;;5.93;3.85;;;;;;;;;;5022857;28;20175;-74
2023/06/19 13:39:32;;;;;;;3.92;3.35;;;;;;;;;;5023901;28;20418;-74
2023/06/19 13:41:59;;;;;;;6.70;3.58;;;;;;;;;;5019483;28;20060;-74
2023/06/19 13:44:25;;;;;;;6.53;3.65;;;;;;;;;;5021477;28;20692;-76
2023/06/19 13:46:50;;;;;;;3.78;3.47;;;;;;;;;;5024743;28;20144;-76
2023/06/19 13:49:16;;;;;;;4.00;3.35;;;;;;;;;;5007028;28;20072;-73
2023/06/19 13:51:44;;;;;;;3.75;3.30;;;;;;;;;;5029053;28;20554;-76
2023/06/19 13:54:10;;;;;;;4.07;3.10;;;;;;;;;;5023358;28;20412;-77
2023/06/19 13:56:36;;;;;;;4.20;3.20;;;;;;;;;;5021154;28;20053;-74
2023/06/19 13:59:02;;;;;;;4.80;3.45;;;;;;;;;;5034176;28;20985;-76
2023/06/19 14:01:28;;;;;;;4.57;4.07;;;;;;;;;;5026312;28;20076;-76
2023/06/19 14:03:53;;;;;;;4.28;3.88;;;;;;;;;;5037533;28;20087;-72
2023/06/19 14:06:19;;;;;;;3.80;3.50;;;;;;;;;;5020937;28;20115;-74
2023/06/19 14:08:44;;;;;;;6.18;4.25;;;;;;;;;;5023849;28;20079;-74
2023/06/19 14:11:11;;;;;;;5.43;4.20;;;;;;;;;;5024990;28;20060;-74
2023/06/19 14:13:37;;;;;;;6.95;4.18;;;;;;;;;;5025440;28;20067;-74
2023/06/19 14:16:02;;;;;;;3.85;3.45;;;;;;;;;;5022262;28;20077;-73
2023/06/19 14:18:28;;;;;;;5.07;4.13;;;;;;;;;;5019526;28;20445;-72
2023/06/19 14:20:53;;;;;;;7.15;3.80;;;;;;;;;;5020610;28;20136;-73
2023/06/19 14:23:18;;;;;;;4.50;3.90;;;;;;;;;;5022485;28;20049;-73
2023/06/19 14:25:44;;;;;;;6.72;3.75;;;;;;;;;;5024140;28;20045;-73
2023/06/19 14:28:09;;;;;;;10.40;4.60;;;;;;;;;;5022599;28;20056;-74
2023/06/19 14:30:35;;;;;;;4.38;3.97;;;;;;;;;;5020950;28;20045;-76
2023/06/19 14:33:01;;;;;;;5.07;4.07;;;;;;;;;;5019908;28;20080;-73
2023/06/19 14:35:27;;;;;;;4.93;3.47;;;;;;;;;;5020431;28;20064;-74